x

Southeast Hawaii - 205 Nm Southeast Of Hilo, Hi (51004) Wave Buoy

1:50pm - Mon 25th Sep 2017 All times are HST. -10 hours from GMT.

  • Sig Wave height 3.9ft
  • Swell Direction
  • Peak Period 8s
  • Average Period 7s
  • Wind
    11mph, 13mph gusts
  • Sea Temp 81°f
  • Sea Pressure 1012.1mb
  • Southeast Hawaii - 205 Nm Southeast Of Hilo, Hi
  • Southeast Hawaii - 205 Nm Southeast Of Hilo, Hi

More Historic Weather Station data

Upgrade to MSW Pro to gain access to the past 30 days of data for over 8000 Wavebouys and Weather Stations around the globe.

Join

Comparision Forecast

View Surf forecast
   
Mon 09/25 1:50pm 4ft 8s 7s 11 13 mph 1012.1mb 81f
12:50pm 4ft 8s 6s 11 13 mph 1012.7mb 81f
11:50am 4ft 8s 6s 11 13 mph 1013.6mb 81f
10:50am 4ft 9s 6s 11 13 mph 1014mb 81f
9:50am 4ft 11s 6s 11 13 mph 1014.1mb 80f
8:50am 4.5ft 9s 6s 11 13 mph 1014.3mb 80f
7:50am 4.5ft 8s 6s 11 13 mph 1013.8mb 80f
6:50am 4.5ft 9s 6s 11 11 mph 1013.3mb 80f
5:50am 4ft 7s 6s 9 11 mph 1012.5mb 80f
4:50am 4ft 8s 6s 11 11 mph 1012.2mb 80f
3:50am 4ft 11s 6s 9 11 mph 1012.1mb 80f
2:50am 4.5ft 10s 6s 9 13 mph 1012.3mb 80f
1:50am 4ft 8s 6s 11 13 mph 1012.8mb 80f
12:50am 4ft 8s 6s 11 13 mph 1013.3mb 80f
Sun 09/24 11:50pm 4ft 7s 6s 13 16 mph 1013.7mb 80f
10:50pm 4ft 8s 6s 13 16 mph 1014.1mb 80f
9:50pm 4ft 10s 6s 13 16 mph 1014.3mb 80f
8:50pm 4ft 11s 6s 13 16 mph 1014mb 80f
7:50pm 3.5ft 11s 6s 13 16 mph 1013.3mb 81f
6:50pm 4ft 11s 6s 13 16 mph 1012.9mb 81f
5:50pm 4ft 11s 6s 13 16 mph 1012.2mb 81f
4:50pm 4ft 11s 6s 11 16 mph 1012mb 81f
3:50pm 4ft 11s 6s 11 13 mph 1011.9mb 81f
2:50pm 4ft 11s 6s 11 13 mph 1012.1mb 81f
1:50pm 4ft 8s 6s 11 13 mph 1012.5mb 81f
12:50pm 4ft 11s 6s 11 13 mph 1013.2mb 81f
11:50am 4ft 8s 6s 9 11 mph 1013.9mb 81f
10:50am 4ft 8s 6s 11 13 mph 1014.4mb 81f
9:50am 4.5ft 11s 6s 9 11 mph 1014.7mb 80f
8:50am 4ft 8s 6s 11 13 mph 1014.6mb 80f
7:50am 4.5ft 8s 6s 13 16 mph 1014.1mb 80f
6:50am 4ft 8s 6s 11 13 mph 1013.6mb 80f
5:50am 4.5ft 8s 6s 13 16 mph 1013.4mb 80f
4:50am 4.5ft 8s 6s 11 16 mph 1013.1mb 80f
3:50am 4.5ft 11s 6s 13 16 mph 1013.1mb 80f
2:50am 4.5ft 11s 6s 16 18 mph 1013.1mb 80f
1:50am 4.5ft 8s 6s 11 13 mph 1013.8mb 80f
12:50am 4.5ft 8s 6s 11 13 mph 1014.2mb 80f
Sat 09/23 11:50pm 4.5ft 11s 6s 11 13 mph 1014.7mb 80f
10:50pm 4.5ft 8s 6s 11 13 mph 1015mb 80f
9:50pm 4.5ft 8s 6s 11 13 mph 1015.3mb 80f
8:50pm 4.5ft 11s 6s 11 13 mph 1015mb 80f
7:50pm 4.5ft 11s 6s 11 13 mph 1014.6mb 80f
6:50pm 4.5ft 11s 6s 11 13 mph 1013.8mb 80f
5:50pm 4.5ft 11s 6s 11 13 mph 1013.2mb 81f
4:50pm 5ft 8s 6s 11 13 mph 1012.7mb 81f
3:50pm 4.5ft 11s 6s 11 13 mph 1012.7mb 81f
2:50pm 4.5ft 11s 6s 13 16 mph 1012.8mb 81f
1:50pm 4.5ft 11s 6s 9 11 mph 1013.2mb 81f
12:50pm 5ft 8s 6s 13 16 mph 1013.9mb 81f
11:50am 5ft 8s 6s 13 16 mph 1014.6mb 81f
10:50am 5ft 11s 6s 13 16 mph 1015.1mb 80f
9:50am 5ft 11s 6s 13 16 mph 1015.4mb 80f
8:50am 4.5ft 8s 6s 13 16 mph 1015.3mb 80f
7:50am 5ft 9s 6s 13 16 mph 1014.9mb 80f
6:50am 4.5ft 11s 6s 11 13 mph 1014.6mb 80f
5:50am 5ft 10s 6s 11 13 mph 1014mb 80f
4:50am 5.5ft 10s 6s 13 16 mph 1013.6mb 80f
3:50am 5ft 11s 6s 13 16 mph 1013.1mb 80f
2:50am 5ft 8s 6s 13 16 mph 1013.1mb 80f
1:50am 5ft 10s 6s 13 16 mph 1013.4mb 80f
12:50am 5ft 10s 6s 13 16 mph 1013.9mb 80f
Fri 09/22 11:50pm 5ft 11s 6s 16 18 mph 1014.2mb 80f
10:50pm 5ft 8s 6s 16 16 mph 1014.7mb 80f
9:50pm 5ft 10s 6s 13 16 mph 1014.8mb 80f
8:50pm 5ft 11s 6s 18 20 mph 1014.5mb 80f
7:50pm 5ft 10s 6s 16 18 mph 1014.3mb 81f
6:50pm 5ft 10s 7s 11 13 mph 1014.1mb 81f
5:50pm 5ft 11s 6s 7 9 mph 1013.6mb 81f
4:50pm 5.5ft 11s 6s 7 9 mph 1013.1mb 81f
3:50pm 5.5ft 11s 6s 9 11 mph 1012.9mb 81f
2:50pm 5.5ft 8s 6s 9 11 mph 1013.2mb 81f
1:50pm 5.5ft 8s 6s 11 11 mph 1013.5mb 81f
12:50pm 6ft 11s 6s 13 16 mph 1014.1mb 81f
11:50am 6ft 11s 6s 13 18 mph 1014.8mb 80f
10:50am 6ft 8s 6s 13 16 mph 1015.4mb 80f
9:50am 6ft 8s 6s 13 16 mph 1015.4mb 80f
8:50am 6ft 11s 6s 16 18 mph 1015.3mb 80f
7:50am 6ft 8s 6s 13 18 mph 1014.7mb 80f
6:50am 5.5ft 11s 6s 16 20 mph 1014.2mb 80f
5:50am 5.5ft 11s 6s 18 20 mph 1013.5mb 80f
4:50am 6ft 8s 6s 16 18 mph 1013.3mb 80f
3:50am 6ft 8s 6s 16 20 mph 1013mb 80f
2:50am 6ft 8s  -  16 18 mph 1013.6mb 80f
1:50am 6ft 8s 6s 13 18 mph 1014.1mb 80f